Time;durP1;ratioP1;P1;durP2;ratioP2;P2;SDS_P1;SDS_P2;PMS_P1;PMS_P2;Temp;Humidity;BMP_temperature;BMP_pressure;BME280_temperature;BME280_humidity;BME280_pressure;Samples;Min_cycle;Max_cycle;Signal;HPM_P1;HPM_P2
2023/07/06 00:55:25;;;;;;;3.53;1.75;;;;;;;15.65;52.14;95772.63;4962138;28;20216;-85
2023/07/06 00:57:52;;;;;;;3.88;2.00;;;;;;;15.63;52.00;95779.00;4953483;28;20176;-85
2023/07/06 01:00:21;;;;;;;2.70;1.70;;;;;;;15.68;52.25;95780.13;4964177;28;20267;-85
2023/07/06 01:02:47;;;;;;;2.65;2.05;;;;;;;15.73;51.92;95777.81;4966597;28;20277;-85
2023/07/06 01:05:12;;;;;;;2.28;1.75;;;;;;;15.79;52.08;95776.28;4968780;28;20264;-83
2023/07/06 01:07:39;;;;;;;4.18;1.95;;;;;;;15.78;51.99;95780.72;4981988;28;20208;-83
2023/07/06 01:10:06;;;;;;;2.30;1.75;;;;;;;15.59;52.22;95776.72;4974239;28;20228;-84
2023/07/06 01:12:32;;;;;;;2.88;1.90;;;;;;;15.53;51.94;95776.56;4971406;28;20264;-84
2023/07/06 01:14:58;;;;;;;2.72;2.05;;;;;;;15.63;51.91;95771.97;4963637;28;20213;-84
2023/07/06 01:17:30;;;;;;;3.80;1.95;;;;;;;15.74;51.63;95776.00;4975623;28;20200;-83
2023/07/06 01:20:34;;;;;;;2.70;2.08;;;;;;;15.74;51.13;95776.81;4980932;28;20185;-83
2023/07/06 01:23:17;;;;;;;5.50;2.10;;;;;;;15.77;50.76;95776.47;4916377;29;20549;-84
2023/07/06 01:26:03;;;;;;;4.05;2.10;;;;;;;15.72;50.47;95780.56;4907318;29;20231;-84
2023/07/06 01:28:54;;;;;;;2.78;1.73;;;;;;;15.86;50.11;95785.06;4909054;29;20210;-85
2023/07/06 01:31:36;;;;;;;2.38;1.63;;;;;;;15.86;50.13;95780.66;4913267;29;20237;-85
2023/07/06 01:34:09;;;;;;;3.67;1.73;;;;;;;15.89;50.16;95776.06;4902619;29;20187;-86
2023/07/06 01:36:39;;;;;;;3.58;1.75;;;;;;;15.93;49.49;95772.91;4890778;29;20210;-85
2023/07/06 01:39:30;;;;;;;2.22;1.83;;;;;;;15.97;49.48;95776.81;4893033;29;20202;-84
2023/07/06 01:42:26;;;;;;;2.47;2.10;;;;;;;15.93;49.64;95774.72;4914323;29;20210;-85
2023/07/06 01:44:55;;;;;;;2.50;1.83;;;;;;;15.81;49.86;95769.91;4880000;29;20382;-83
2023/07/06 01:47:20;;;;;;;2.55;1.65;;;;;;;15.63;50.81;95773.75;4888295;29;20207;-84
2023/07/06 01:49:46;;;;;;;3.05;2.13;;;;;;;15.55;50.73;95759.72;4916870;29;20233;-85
2023/07/06 01:52:18;;;;;;;5.38;1.90;;;;;;;15.58;50.83;95761.19;4889552;29;20194;-84
2023/07/06 01:54:58;;;;;;;4.65;2.03;;;;;;;15.59;50.84;95768.84;4904538;29;20993;-84
2023/07/06 01:57:31;;;;;;;3.30;1.55;;;;;;;15.59;50.81;95766.25;4951669;28;20255;-85
2023/07/06 01:59:57;;;;;;;2.30;1.73;;;;;;;15.58;50.76;95772.47;4959052;28;20193;-84
2023/07/06 02:02:23;;;;;;;4.63;1.80;;;;;;;15.57;50.82;95770.84;4982778;28;20192;-83
2023/07/06 02:04:52;;;;;;;5.00;1.92;;;;;;;15.54;50.72;95773.78;4970053;28;20287;-85
2023/07/06 02:07:20;;;;;;;2.47;1.70;;;;;;;15.55;50.56;95762.34;4965617;28;20209;-84
2023/07/06 02:09:46;;;;;;;2.22;1.60;;;;;;;15.50;50.76;95772.50;4981742;28;20196;-84
2023/07/06 02:12:15;;;;;;;2.58;1.90;;;;;;;15.49;50.86;95772.69;4968150;28;20198;-84
2023/07/06 02:14:41;;;;;;;2.92;1.60;;;;;;;15.28;51.71;95770.66;4956170;28;20193;-84
2023/07/06 02:17:07;;;;;;;2.85;1.73;;;;;;;15.22;51.96;95774.78;4986200;28;20196;-83
2023/07/06 02:19:35;;;;;;;3.88;1.75;;;;;;;15.29;51.62;95767.06;4959844;28;20561;-84
2023/07/06 02:22:04;;;;;;;2.30;1.90;;;;;;;15.21;51.93;95774.97;4941105;29;20221;-83
2023/07/06 02:24:31;;;;;;;2.40;1.73;;;;;;;15.23;52.32;95770.38;4984272;28;20189;-84
2023/07/06 02:26:56;;;;;;;3.67;1.80;;;;;;;15.14;52.46;95774.00;4975096;28;20208;-85
2023/07/06 02:29:24;;;;;;;4.65;1.38;;;;;;;15.08;52.60;95766.81;4990233;28;20189;-84
2023/07/06 02:31:50;;;;;;;2.28;1.80;;;;;;;15.27;51.69;95763.78;4981798;28;20256;-84
2023/07/06 02:34:24;;;;;;;4.15;1.67;;;;;;;15.27;52.13;95769.03;4958179;28;20689;-84
2023/07/06 02:36:49;;;;;;;2.15;1.90;;;;;;;15.26;52.18;95777.88;4973681;28;20184;-85
2023/07/06 02:39:15;;;;;;;6.38;1.73;;;;;;;15.27;52.03;95777.69;4968443;28;20588;-85
2023/07/06 02:41:40;;;;;;;4.43;1.90;;;;;;;15.10;52.35;95770.91;4969764;28;20547;-84
2023/07/06 02:44:05;;;;;;;3.67;1.80;;;;;;;15.01;52.82;95757.03;4966716;28;20192;-84
2023/07/06 02:46:31;;;;;;;2.78;1.50;;;;;;;15.01;52.69;95759.66;4978404;28;20578;-83
2023/07/06 02:48:56;;;;;;;2.85;1.80;;;;;;;14.97;52.60;95761.00;4986539;28;20192;-84
2023/07/06 02:51:22;;;;;;;3.22;2.08;;;;;;;14.99;53.13;95761.63;4976360;28;20189;-84
2023/07/06 02:53:47;;;;;;;3.35;1.50;;;;;;;15.09;52.74;95753.56;4969204;28;20187;-85
2023/07/06 02:56:13;;;;;;;4.57;1.77;;;;;;;15.09;52.55;95752.75;4966867;28;20244;-84
2023/07/06 02:58:38;;;;;;;4.85;1.88;;;;;;;15.09;52.56;95747.53;4985387;28;20188;-84
2023/07/06 03:01:04;;;;;;;3.47;1.52;;;;;;;15.14;52.38;95748.66;4974092;28;20240;-84
2023/07/06 03:03:29;;;;;;;2.28;1.60;;;;;;;15.10;52.86;95751.78;4984215;28;20176;-84
2023/07/06 03:05:54;;;;;;;2.13;1.38;;;;;;;14.99;53.07;95753.78;4973817;28;20212;-83
2023/07/06 03:08:20;;;;;;;5.32;1.73;;;;;;;14.89;53.74;95754.97;4988643;28;20224;-84
2023/07/06 03:10:46;;;;;;;2.85;1.70;;;;;;;14.97;53.04;95752.31;4989321;28;20513;-83
2023/07/06 03:13:13;;;;;;;3.38;1.70;;;;;;;15.07;52.72;95750.31;4969847;28;20192;-84
2023/07/06 03:15:40;;;;;;;2.88;1.70;;;;;;;15.06;52.59;95747.88;4972006;28;20212;-86
2023/07/06 03:18:06;;;;;;;4.53;2.10;;;;;;;15.00;52.56;95752.78;4960770;28;20251;-84
2023/07/06 03:20:32;;;;;;;3.13;1.77;;;;;;;15.13;52.31;95748.84;4982440;28;20668;-85
2023/07/06 03:22:57;;;;;;;3.03;1.60;;;;;;;14.93;52.84;95745.78;4974116;28;20267;-85
2023/07/06 03:25:25;;;;;;;2.15;1.48;;;;;;;14.97;52.88;95747.91;4974296;28;20204;-85
2023/07/06 03:27:50;;;;;;;2.80;1.75;;;;;;;14.85;53.51;95741.44;4985013;28;20716;-82
2023/07/06 03:30:21;;;;;;;6.50;2.20;;;;;;;14.81;53.86;95747.97;4980293;28;20185;-83
2023/07/06 03:32:46;;;;;;;3.33;1.70;;;;;;;14.85;53.79;95744.06;4969631;28;20185;-84
2023/07/06 03:35:13;;;;;;;6.25;2.38;;;;;;;14.79;54.07;95747.31;4980554;28;20761;-84
2023/07/06 03:37:41;;;;;;;3.30;1.70;;;;;;;14.80;54.32;95746.34;4985050;28;20280;-85
2023/07/06 03:40:14;;;;;;;3.33;1.85;;;;;;;14.87;53.75;95744.69;4969904;28;20185;-85
2023/07/06 03:42:40;;;;;;;3.03;1.85;;;;;;;14.83;53.84;95743.38;4946727;28;20492;-85
2023/07/06 03:45:08;;;;;;;1.92;1.75;;;;;;;14.90;53.82;95749.56;4955608;28;20212;-85
2023/07/06 03:47:34;;;;;;;2.17;1.67;;;;;;;15.16;52.96;95751.09;4968801;28;20209;-85
2023/07/06 03:50:00;;;;;;;4.07;1.75;;;;;;;14.95;53.32;95755.13;4972434;28;20203;-85
2023/07/06 03:52:27;;;;;;;4.90;1.98;;;;;;;14.99;53.53;95753.78;4969660;28;20188;-85
2023/07/06 03:54:53;;;;;;;3.33;1.90;;;;;;;15.13;53.23;95749.66;4964535;28;20212;-86
2023/07/06 03:57:19;;;;;;;4.55;2.08;;;;;;;15.23;53.04;95758.09;4977613;28;20181;-83
2023/07/06 03:59:44;;;;;;;2.75;1.77;;;;;;;15.76;51.33;95748.66;4953269;28;20259;-84
2023/07/06 04:02:10;;;;;;;4.82;1.65;;;;;;;16.84;49.03;95742.28;4960910;28;20248;-84
2023/07/06 04:04:36;;;;;;;3.88;2.00;;;;;;;17.68;46.69;95751.38;4979224;28;20212;-85
2023/07/06 04:07:02;;;;;;;4.60;2.47;;;;;;;18.35;44.70;95752.78;4955191;28;20201;-86
2023/07/06 04:09:28;;;;;;;4.55;2.05;;;;;;;18.44;44.17;95758.72;4944098;28;20216;-85
2023/07/06 04:11:54;;;;;;;2.33;1.77;;;;;;;17.64;45.70;95757.97;4964318;28;20185;-85
2023/07/06 04:14:24;;;;;;;3.97;2.17;;;;;;;17.58;46.26;95760.53;4971239;28;20191;-84
2023/07/06 04:16:54;;;;;;;4.63;1.73;;;;;;;16.99;47.21;95762.28;4956706;28;20173;-84
2023/07/06 04:19:21;;;;;;;3.47;2.00;;;;;;;16.56;48.54;95763.84;4969483;28;20181;-84
2023/07/06 04:21:46;;;;;;;4.40;1.75;;;;;;;18.11;45.11;95757.47;4971824;28;20180;-83
2023/07/06 04:24:12;;;;;;;3.55;1.65;;;;;;;18.98;43.33;95763.34;4980889;28;20647;-83
2023/07/06 04:26:39;;;;;;;4.93;1.73;;;;;;;19.89;41.20;95763.94;4945159;28;20212;-87
2023/07/06 04:29:09;;;;;;;3.47;1.80;;;;;;;20.35;40.30;95761.34;4949518;28;20577;-85
2023/07/06 04:31:35;;;;;;;4.63;1.85;;;;;;;21.63;37.16;95772.25;4970037;28;20192;-84
2023/07/06 04:34:00;;;;;;;3.45;2.00;;;;;;;20.73;39.32;95766.81;4956302;28;20549;-85
2023/07/06 04:36:26;;;;;;;2.10;1.73;;;;;;;21.88;36.67;95762.53;4942094;28;20196;-84
2023/07/06 04:38:51;;;;;;;2.40;1.60;;;;;;;22.04;36.46;95769.97;4968312;28;20189;-84
2023/07/06 04:41:16;;;;;;;4.40;1.92;;;;;;;;;;4980202;28;20244;-83
2023/07/06 04:43:41;;;;;;;4.37;2.20;;;;;;;22.95;34.71;95770.50;4966657;28;20205;-82
2023/07/06 04:46:08;;;;;;;3.80;1.95;;;;;;;23.13;34.53;95775.81;4965079;28;20461;-82
2023/07/06 04:48:34;;;;;;;4.18;1.67;;;;;;;23.86;33.40;95769.69;4973710;28;20991;-83
2023/07/06 04:50:59;;;;;;;2.15;1.67;;;;;;;24.02;33.53;95775.13;4981122;28;20201;-83
2023/07/06 04:53:25;;;;;;;2.85;1.67;;;;;;;24.61;32.81;95766.50;4961105;28;20181;-82
2023/07/06 04:55:51;;;;;;;3.17;1.50;;;;;;;24.39;32.73;95775.03;4962002;28;20223;-82
2023/07/06 04:58:16;;;;;;;2.03;1.40;;;;;;;23.90;33.82;95770.81;4971085;28;20772;-82
2023/07/06 05:00:45;;;;;;;3.42;2.00;;;;;;;23.54;34.77;95776.97;4939428;28;20858;-85
2023/07/06 05:03:10;;;;;;;2.70;1.85;;;;;;;24.08;33.87;95772.63;4937936;28;20185;-84
2023/07/06 05:05:46;;;;;;;4.20;1.70;;;;;;;25.73;32.31;95782.25;4966474;28;20264;-83
2023/07/06 05:08:15;;;;;;;2.90;1.80;;;;;;;27.53;29.05;95781.13;4978463;28;20201;-84
2023/07/06 05:10:48;;;;;;;2.55;1.52;;;;;;;27.27;29.21;95782.69;4984837;28;20173;-85
2023/07/06 05:13:13;;;;;;;3.10;1.60;;;;;;;28.39;27.57;95789.31;4987229;28;20192;-81
2023/07/06 05:15:38;;;;;;;4.93;2.10;;;;;;;27.61;28.29;95793.25;4983374;28;20212;-81
2023/07/06 05:18:06;;;;;;;4.25;1.58;;;;;;;27.05;28.82;95795.19;4987727;28;20208;-83
2023/07/06 05:20:31;;;;;;;2.42;1.55;;;;;;;29.43;26.93;95795.94;4995345;28;20181;-86
2023/07/06 05:22:57;;;;;;;4.82;1.95;;;;;;;29.57;26.31;95796.28;5002767;28;20200;-84
2023/07/06 05:25:23;;;;;;;4.15;1.45;;;;;;;29.18;25.88;95793.94;4977047;28;20200;-86
2023/07/06 05:27:48;;;;;;;6.05;1.75;;;;;;;29.60;25.34;95796.59;4996698;28;20220;-85
2023/07/06 05:30:13;;;;;;;3.58;1.80;;;;;;;30.25;24.92;95797.06;4983719;28;20196;-87
2023/07/06 05:32:39;;;;;;;3.97;1.85;;;;;;;29.80;24.60;95795.84;4943034;29;20222;-85
2023/07/06 05:35:05;;;;;;;2.33;1.70;;;;;;;29.44;25.53;95802.09;4955678;28;20204;-86
2023/07/06 05:37:33;;;;;;;2.55;1.52;;;;;;;30.45;24.28;95807.00;4981715;28;20180;-85
2023/07/06 05:39:59;;;;;;;3.85;2.17;;;;;;;29.77;24.77;95809.78;4982987;28;20177;-86
2023/07/06 05:42:25;;;;;;;7.70;5.20;;;;;;;29.46;25.28;95806.13;4975751;28;20200;-89
2023/07/06 05:44:50;;;;;;;9.32;6.55;;;;;;;29.64;25.10;95806.75;4969636;28;20625;-85
2023/07/06 05:47:16;;;;;;;4.72;3.75;;;;;;;30.24;23.83;95811.53;4980868;28;20201;-84
2023/07/06 05:49:41;;;;;;;3.13;2.20;;;;;;;29.54;25.05;95818.22;4965345;28;20196;-85
2023/07/06 05:52:07;;;;;;;8.02;4.88;;;;;;;28.50;26.27;95815.06;4949737;28;20189;-85
2023/07/06 05:54:32;;;;;;;4.88;3.05;;;;;;;29.13;25.19;95817.16;4970212;28;20219;-85
2023/07/06 05:57:00;;;;;;;9.00;4.97;;;;;;;29.28;24.55;95814.56;4966277;28;20185;-84
2023/07/06 05:59:26;;;;;;;5.30;3.53;;;;;;;30.42;23.49;95823.59;4965283;28;20175;-78
2023/07/06 06:01:52;;;;;;;4.57;2.70;;;;;;;28.26;25.48;95819.06;4980368;28;20609;-79
2023/07/06 06:04:18;;;;;;;3.08;2.05;;;;;;;27.63;26.48;95815.13;4960827;28;20200;-77
2023/07/06 06:06:46;;;;;;;3.47;2.38;;;;;;;26.19;28.62;95819.31;4961652;28;20360;-81
2023/07/06 06:09:12;;;;;;;5.03;1.95;;;;;;;25.22;30.78;95813.06;4966481;28;20188;-85
2023/07/06 06:11:37;;;;;;;3.47;1.98;;;;;;;27.20;27.89;95818.56;4967890;28;20200;-84
2023/07/06 06:14:04;;;;;;;2.75;1.90;;;;;;;28.92;25.72;95825.03;4950714;28;20200;-85
2023/07/06 06:16:29;;;;;;;5.43;1.98;;;;;;;29.15;24.84;95826.53;4968359;28;20215;-86
2023/07/06 06:18:56;;;;;;;3.45;1.90;;;;;;;29.78;24.13;95832.78;4954701;28;20590;-86
2023/07/06 06:21:22;;;;;;;5.55;1.70;;;;;;;28.72;24.78;95832.88;4953193;28;20180;-87
2023/07/06 06:23:49;;;;;;;3.22;1.70;;;;;;;30.29;23.77;95838.31;4981959;28;20272;-87
2023/07/06 06:26:15;;;;;;;5.60;1.70;;;;;;;30.29;24.22;95835.63;4967683;28;20638;-85
2023/07/06 06:28:41;;;;;;;4.82;2.13;;;;;;;30.57;23.63;95837.03;4982965;28;20192;-88
2023/07/06 06:31:08;;;;;;;2.83;1.90;;;;;;;29.52;25.98;95837.22;4983361;28;20219;-86
2023/07/06 06:33:33;;;;;;;3.17;2.00;;;;;;;27.57;27.93;95834.81;4983850;28;20193;-86
2023/07/06 06:35:59;;;;;;;3.70;2.03;;;;;;;28.45;27.11;95840.94;4963785;28;20204;-86
2023/07/06 06:38:25;;;;;;;2.97;1.52;;;;;;;29.53;25.16;95846.03;4958918;28;20243;-85
2023/07/06 06:40:51;;;;;;;6.68;1.80;;;;;;;28.51;26.59;95847.91;4956797;28;20184;-87
2023/07/06 06:43:16;;;;;;;3.80;1.90;;;;;;;29.14;25.02;95848.97;4954955;28;20745;-87
2023/07/06 06:45:41;;;;;;;5.57;1.70;;;;;;;28.56;25.80;95847.16;4983340;28;20201;-86
2023/07/06 06:48:11;;;;;;;4.95;1.80;;;;;;;27.81;26.41;95844.19;4980250;28;20219;-86
2023/07/06 06:50:46;;;;;;;4.20;1.75;;;;;;;28.53;24.95;95844.97;4981495;28;20185;-84
2023/07/06 06:53:14;;;;;;;3.85;1.92;;;;;;;28.09;25.74;95850.38;4971865;28;20290;-84
2023/07/06 06:55:40;;;;;;;3.90;1.77;;;;;;;28.55;24.89;95840.22;4979271;28;20250;-84
2023/07/06 06:58:15;;;;;;;2.50;1.35;;;;;;;29.12;24.66;95840.41;4962900;28;20201;-87
2023/07/06 07:00:44;;;;;;;5.13;1.90;;;;;;;27.79;26.67;95845.50;4995753;28;20199;-85
2023/07/06 07:03:13;;;;;;;6.60;1.80;;;;;;;28.81;25.94;95838.56;5014319;23;20376;-86
2023/07/06 07:05:39;;;;;;;2.88;1.73;;;;;;;27.76;27.36;95846.00;4985538;28;20281;-85
2023/07/06 07:08:04;;;;;;;5.63;1.83;;;;;;;27.28;28.33;95836.81;4986333;28;20215;-85
2023/07/06 07:10:30;;;;;;;4.00;1.83;;;;;;;28.00;28.50;95841.22;4985471;28;20701;-87
2023/07/06 07:12:55;;;;;;;5.28;1.85;;;;;;;29.07;25.72;95832.38;4970299;28;20180;-87
2023/07/06 07:15:21;;;;;;;3.08;1.35;;;;;;;30.39;22.89;95845.56;4979529;28;20258;-85
2023/07/06 07:17:46;;;;;;;3.35;1.77;;;;;;;30.48;22.70;95845.84;4987870;28;20180;-84
2023/07/06 07:20:13;;;;;;;4.18;1.70;;;;;;;29.74;24.23;95839.72;4971104;28;20267;-84
2023/07/06 07:22:41;;;;;;;3.92;2.00;;;;;;;30.98;23.50;95837.84;4985170;28;20183;-88
2023/07/06 07:25:07;;;;;;;2.80;1.77;;;;;;;29.64;24.17;95838.88;4970276;28;20254;-84
2023/07/06 07:27:38;;;;;;;3.63;1.80;;;;;;;29.75;24.72;95838.66;4983241;28;20195;-85
2023/07/06 07:30:05;;;;;;;2.58;1.65;;;;;;;30.24;23.05;95848.22;4980374;28;20180;-85
2023/07/06 07:32:31;;;;;;;2.97;1.90;;;;;;;30.48;23.30;95845.84;4975641;28;20180;-84
2023/07/06 07:34:58;;;;;;;2.90;1.80;;;;;;;29.81;24.77;95839.47;4981741;28;20291;-87
2023/07/06 07:37:25;;;;;;;2.92;1.83;;;;;;;29.33;25.40;95844.00;4963257;28;20180;-85
2023/07/06 07:39:50;;;;;;;3.42;1.73;;;;;;;28.15;26.56;95842.19;4977538;28;20557;-84
2023/07/06 07:42:16;;;;;;;3.85;1.95;;;;;;;28.59;26.43;95834.09;4965442;28;20282;-86
2023/07/06 07:44:44;;;;;;;9.27;1.85;;;;;;;28.77;26.37;95847.06;4971082;28;20173;-87
2023/07/06 07:47:10;;;;;;;4.00;1.70;;;;;;;28.54;25.78;95852.75;4980816;28;20215;-85
2023/07/06 07:49:37;;;;;;;2.70;1.50;;;;;;;28.17;26.51;95849.94;4968191;28;20198;-87
2023/07/06 07:52:03;;;;;;;3.80;1.65;;;;;;;28.15;26.38;95841.38;4985962;28;20218;-85
2023/07/06 07:54:30;;;;;;;4.32;2.10;;;;;;;26.52;28.21;95841.75;5003970;28;20199;-85
2023/07/06 07:56:56;;;;;;;4.97;1.92;;;;;;;26.15;29.53;95836.81;4980996;28;20176;-89
2023/07/06 07:59:23;;;;;;;2.97;1.98;;;;;;;26.56;29.82;95834.88;4969341;28;20251;-85
2023/07/06 08:01:50;;;;;;;4.78;1.77;;;;;;;27.76;26.94;95840.69;4971130;28;20177;-84
2023/07/06 08:04:16;;;;;;;5.05;2.15;;;;;;;26.89;27.84;95839.41;4975991;28;20295;-85
2023/07/06 08:06:42;;;;;;;4.90;2.10;;;;;;;25.87;29.95;95834.91;4979630;28;20240;-84
2023/07/06 08:09:08;;;;;;;4.32;2.00;;;;;;;25.23;30.72;95849.25;4981976;28;20180;-84
2023/07/06 08:11:36;;;;;;;3.67;2.03;;;;;;;24.80;31.40;95839.72;4966467;28;20591;-84
2023/07/06 08:14:04;;;;;;;3.25;1.73;;;;;;;24.17;31.90;95846.34;4979587;28;20187;-87
2023/07/06 08:16:32;;;;;;;3.28;1.80;;;;;;;22.55;35.48;95847.59;4965826;28;20234;-85
2023/07/06 08:18:58;;;;;;;6.40;1.92;;;;;;;23.48;33.15;95841.47;4966718;28;20203;-83
2023/07/06 08:21:23;;;;;;;3.08;1.77;;;;;;;23.66;33.23;95846.78;4956700;28;20238;-84
2023/07/06 08:23:50;;;;;;;4.05;1.80;;;;;;;23.37;33.80;95843.84;4963672;28;20550;-85
2023/07/06 08:26:15;;;;;;;3.47;1.70;;;;;;;23.37;33.67;95841.19;4983520;28;20667;-84
2023/07/06 08:28:41;;;;;;;3.42;1.80;;;;;;;24.49;32.82;95836.34;4967594;28;20206;-83
2023/07/06 08:31:14;;;;;;;5.75;2.10;;;;;;;25.32;30.67;95837.22;4982861;28;20211;-86
2023/07/06 08:33:39;;;;;;;1.92;1.63;;;;;;;25.13;30.63;95845.31;4982682;28;20180;-85
2023/07/06 08:36:06;;;;;;;7.72;2.13;;;;;;;24.26;31.98;95854.81;4975893;28;20243;-84
2023/07/06 08:38:31;;;;;;;4.18;2.20;;;;;;;23.99;32.79;95847.22;4961732;28;20235;-85
2023/07/06 08:40:58;;;;;;;3.92;1.73;;;;;;;24.15;33.34;95847.63;4982452;28;20180;-85
2023/07/06 08:43:25;;;;;;;6.30;2.08;;;;;;;23.27;34.07;95840.88;4985244;28;20286;-85
2023/07/06 08:45:56;;;;;;;6.10;1.98;;;;;;;23.23;34.63;95844.19;4967967;28;20207;-86
2023/07/06 08:48:26;;;;;;;6.15;2.28;;;;;;;22.32;36.72;95841.03;4969041;28;20199;-85
2023/07/06 08:51:05;;;;;;;4.28;2.45;;;;;;;23.71;34.47;95844.31;4967881;28;20188;-86
2023/07/06 08:53:33;;;;;;;4.47;1.90;;;;;;;23.79;33.92;95843.19;4964901;28;20184;-86
2023/07/06 08:56:03;;;;;;;5.78;2.10;;;;;;;24.52;32.98;95845.69;4969488;28;20206;-85
2023/07/06 08:58:31;;;;;;;4.30;1.80;;;;;;;24.90;31.53;95839.16;4969718;28;20225;-86
2023/07/06 09:01:06;;;;;;;2.47;1.73;;;;;;;23.60;33.25;95837.09;4969325;28;20222;-85
2023/07/06 09:03:36;;;;;;;4.15;1.80;;;;;;;24.39;33.84;95836.09;4968275;28;20254;-85
2023/07/06 09:06:01;;;;;;;8.48;2.85;;;;;;;25.14;32.63;95844.28;4985197;28;20258;-86
2023/07/06 09:08:27;;;;;;;12.02;2.15;;;;;;;25.37;32.72;95835.47;5001823;28;20191;-86
2023/07/06 09:10:53;;;;;;;6.60;2.25;;;;;;;25.29;30.65;95829.72;4967428;28;20163;-82
2023/07/06 09:13:26;;;;;;;2.95;1.73;;;;;;;24.78;31.35;95841.81;4976899;28;20187;-84
2023/07/06 09:16:03;;;;;;;5.30;1.80;;;;;;;25.73;30.28;95828.28;4984208;28;20268;-85
2023/07/06 09:18:31;;;;;;;4.15;2.05;;;;;;;25.36;31.14;95830.41;4991323;28;20175;-86
2023/07/06 09:20:58;;;;;;;3.78;1.95;;;;;;;24.72;31.61;95832.09;4974913;28;20759;-85
2023/07/06 09:23:24;;;;;;;3.97;2.10;;;;;;;24.29;32.16;95830.47;4971725;28;20180;-89
2023/07/06 09:25:49;;;;;;;4.38;2.47;;;;;;;24.36;32.13;95825.91;4970837;28;20208;-87
2023/07/06 09:28:29;;;;;;;3.80;2.55;;;;;;;23.68;32.87;95827.00;4987047;28;20286;-85
2023/07/06 09:31:18;;;;;;;4.47;2.00;;;;;;;23.85;33.03;95829.81;4970559;28;20187;-86
2023/07/06 09:33:48;;;;;;;4.78;2.15;;;;;;;23.88;32.75;95836.56;4960962;28;20192;-85
2023/07/06 09:36:23;;;;;;;3.72;1.83;;;;;;;24.68;32.28;95836.25;4966675;28;20216;-87
2023/07/06 09:38:50;;;;;;;3.72;1.92;;;;;;;24.91;32.16;95836.25;4985099;28;20183;-89
2023/07/06 09:41:29;;;;;;;3.38;1.80;;;;;;;24.64;32.08;95835.06;5074080;23;20236;-86
2023/07/06 09:43:58;;;;;;;3.28;1.92;;;;;;;24.97;31.70;95830.03;5003975;28;20175;-86
2023/07/06 09:46:31;;;;;;;4.10;1.95;;;;;;;24.58;33.04;95839.47;4985893;28;20238;-86
2023/07/06 09:48:59;;;;;;;4.22;2.25;;;;;;;25.09;31.74;95836.19;4974106;28;20183;-87
2023/07/06 09:51:29;;;;;;;4.35;2.40;;;;;;;25.65;31.42;95839.25;5008467;28;20194;-86
2023/07/06 09:56:45;;;;;;;4.78;2.10;;;;;;;25.33;31.68;95846.81;5004133;28;20286;-84
2023/07/06 09:59:13;;;;;;;4.10;1.95;;;;;;;25.44;29.76;95840.66;4983845;28;20242;-85
2023/07/06 10:01:48;;;;;;;5.45;2.25;;;;;;;26.15;30.85;95847.47;4988751;28;20257;-86
2023/07/06 10:04:43;;;;;;;3.58;2.08;;;;;;;26.20;30.18;95844.88;4994712;28;20269;-84
2023/07/06 10:07:39;;;;;;;4.25;2.55;;;;;;;26.11;29.05;95848.97;5009019;28;20215;-84
2023/07/06 10:10:35;;;;;;;3.35;1.77;;;;;;;26.09;29.49;95843.06;4991330;28;20190;-86
2023/07/06 10:13:06;;;;;;;4.35;2.08;;;;;;;25.83;29.38;95851.59;5006102;28;20183;-86
2023/07/06 10:15:45;;;;;;;2.75;2.28;;;;;;;25.63;30.68;95836.84;5002926;28;20731;-85
2023/07/06 10:18:23;;;;;;;4.38;2.05;;;;;;;25.90;29.59;95842.44;5000673;28;20505;-83
2023/07/06 10:20:53;;;;;;;3.75;2.40;;;;;;;25.30;30.53;95849.94;4992777;28;20194;-87
2023/07/06 10:23:32;;;;;;;4.43;2.22;;;;;;;25.53;30.92;95851.75;5004109;28;20579;-85
2023/07/06 10:26:29;;;;;;;3.47;1.92;;;;;;;25.63;30.56;95847.47;5001138;28;20251;-85
2023/07/06 10:29:09;;;;;;;5.05;2.42;;;;;;;25.30;31.28;95853.41;4992390;28;20202;-87
2023/07/06 10:31:42;;;;;;;6.95;3.00;;;;;;;25.72;30.03;95853.25;4988172;28;20187;-88
2023/07/06 10:34:15;;;;;;;3.15;2.50;;;;;;;26.21;29.69;95846.47;4987845;28;20191;-86
2023/07/06 10:36:41;;;;;;;5.45;2.35;;;;;;;26.88;29.05;95852.97;4985148;28;20202;-86
2023/07/06 10:39:25;;;;;;;3.20;2.08;;;;;;;26.83;27.97;95848.38;4985902;28;20206;-87
2023/07/06 10:42:01;;;;;;;2.88;1.98;;;;;;;26.17;29.45;95853.34;5003661;28;20202;-86
2023/07/06 10:44:33;;;;;;;4.38;2.15;;;;;;;25.99;29.85;95850.88;4984723;28;20191;-88
2023/07/06 10:46:58;;;;;;;4.18;2.38;;;;;;;25.39;29.24;95853.84;5011278;28;20210;-85
2023/07/06 10:49:24;;;;;;;4.30;2.60;;;;;;;25.27;31.10;95848.56;4984170;28;20187;-86
2023/07/06 10:51:56;;;;;;;3.13;2.40;;;;;;;25.99;30.38;95848.22;4984798;28;20191;-86
2023/07/06 10:54:21;;;;;;;5.18;2.20;;;;;;;25.91;30.02;95845.91;4986287;28;20183;-88
2023/07/06 10:57:13;;;;;;;6.03;2.80;;;;;;;26.33;30.17;95853.59;5004492;28;20790;-85
2023/07/06 10:59:51;;;;;;;5.80;2.60;;;;;;;26.07;30.58;95852.34;4986139;28;20198;-86
2023/07/06 11:02:24;;;;;;;3.45;2.63;;;;;;;26.89;28.34;95857.25;4996270;28;20217;-91
2023/07/06 11:05:07;;;;;;;6.65;2.47;;;;;;;27.58;28.63;95863.09;4985854;28;20406;-87
2023/07/06 11:07:44;;;;;;;4.40;2.42;;;;;;;26.62;28.88;95851.75;5002697;28;20210;-86
2023/07/06 11:10:12;;;;;;;4.68;2.60;;;;;;;26.82;28.45;95854.75;4987243;28;20531;-87
2023/07/06 11:12:51;;;;;;;7.82;2.83;;;;;;;26.91;27.05;95855.97;4997105;28;20198;-88
2023/07/06 11:15:17;;;;;;;4.90;2.38;;;;;;;26.23;28.19;95844.38;5000830;28;20199;-86
2023/07/06 11:17:48;;;;;;;6.25;2.55;;;;;;;26.18;28.82;95854.94;4986419;28;20179;-86
2023/07/06 11:20:22;;;;;;;5.30;2.53;;;;;;;25.65;29.64;95853.34;4990253;28;20205;-87
2023/07/06 11:22:52;;;;;;;3.35;2.33;;;;;;;25.68;30.64;95844.09;4997599;28;20184;-86
2023/07/06 11:25:19;;;;;;;3.88;2.60;;;;;;;25.80;29.08;95852.09;4983416;28;20211;-87
2023/07/06 11:27:48;;;;;;;7.38;3.00;;;;;;;24.91;31.75;95851.38;4992099;28;20204;-86
2023/07/06 11:30:49;;;;;;;3.42;2.70;;;;;;;24.37;30.79;95847.94;4984976;28;20191;-87
2023/07/06 11:33:15;;;;;;;4.82;2.35;;;;;;;25.21;29.69;95843.34;5010656;28;20627;-86
2023/07/06 11:35:51;;;;;;;4.90;2.65;;;;;;;25.80;29.79;95852.09;5003761;28;20221;-87
2023/07/06 11:38:23;;;;;;;4.15;2.70;;;;;;;25.83;29.94;95848.94;5000673;28;20212;-87
2023/07/06 11:41:01;;;;;;;8.25;2.65;;;;;;;25.80;28.39;95844.09;5001947;28;20214;-87
2023/07/06 11:43:51;;;;;;;3.83;2.55;;;;;;;25.85;29.50;95845.00;5017251;28;20182;-87
2023/07/06 11:46:43;;;;;;;2.45;2.25;;;;;;;26.11;29.51;95850.81;4983657;28;20207;-87
2023/07/06 11:49:40;;;;;;;4.70;2.42;;;;;;;26.46;28.33;95845.34;5000688;28;20637;-86
2023/07/06 11:52:10;;;;;;;3.70;2.58;;;;;;;25.97;29.50;95847.63;4990219;28;20274;-87
2023/07/06 11:57:25;;;;;;;4.93;2.53;;;;;;;27.10;26.90;95849.34;4998335;28;20230;-86
2023/07/06 12:02:57;;;;;;;2.80;2.15;;;;;;;27.66;27.72;95852.03;5006777;28;20218;-83
2023/07/06 12:05:29;;;;;;;3.88;2.50;;;;;;;27.39;26.30;95838.59;4981853;28;20221;-80
2023/07/06 12:08:00;;;;;;;4.40;2.28;;;;;;;26.85;28.27;95832.94;4997315;28;20591;-79
2023/07/06 12:10:28;;;;;;;3.85;2.75;;;;;;;27.04;26.99;95846.88;5013354;28;20187;-78
2023/07/06 12:12:55;;;;;;;3.83;2.47;;;;;;;26.81;28.16;95839.81;4977613;28;20183;-80
2023/07/06 12:15:21;;;;;;;3.72;2.67;;;;;;;25.58;28.92;95842.03;4994238;28;20250;-79
2023/07/06 12:17:56;;;;;;;4.22;2.63;;;;;;;26.64;27.12;95836.34;4997441;28;20187;-79
2023/07/06 12:20:25;;;;;;;4.22;2.72;;;;;;;26.67;27.77;95833.19;4978858;28;20183;-79
2023/07/06 12:22:56;;;;;;;3.45;2.58;;;;;;;26.96;26.95;95833.94;5015034;28;20195;-85
2023/07/06 12:25:24;;;;;;;4.68;3.00;;;;;;;26.57;27.54;95833.81;5013467;28;20219;-86
2023/07/06 12:27:55;;;;;;;5.15;2.90;;;;;;;26.45;28.00;95825.09;4982218;28;20213;-80
2023/07/06 12:30:21;;;;;;;4.13;2.50;;;;;;;26.89;28.51;95825.28;5010301;28;20238;-79
2023/07/06 12:32:47;;;;;;;5.30;3.10;;;;;;;27.85;27.37;95829.31;5008962;28;20670;-79
2023/07/06 12:35:13;;;;;;;3.95;2.50;;;;;;;27.68;27.24;95830.44;4994784;28;20192;-79
2023/07/06 12:37:42;;;;;;;4.90;2.65;;;;;;;26.71;27.49;95829.81;4995717;28;20184;-80
2023/07/06 12:40:18;;;;;;;5.95;2.95;;;;;;;27.04;26.34;95828.22;4979660;28;20206;-80
2023/07/06 12:42:44;;;;;;;3.83;2.42;;;;;;;27.32;26.94;95814.75;5007169;28;20193;-80
2023/07/06 12:45:11;;;;;;;3.42;2.60;;;;;;;26.81;27.04;95823.84;4991995;28;20199;-77
2023/07/06 12:47:40;;;;;;;5.20;2.90;;;;;;;26.63;26.60;95814.22;4990121;28;20211;-79